Time;durP1;ratioP1;P1;durP2;ratioP2;P2;SDS_P1;SDS_P2;PMS_P1;PMS_P2;Temp;Humidity;BMP_temperature;BMP_pressure;BME280_temperature;BME280_humidity;BME280_pressure;Samples;Min_cycle;Max_cycle;Signal;HPM_P1;HPM_P2
2022/02/24 00:02:18;;;;;;;;;23.80;19.80;;;;;9.46;40.79;99627.56;6263424;27;96593;-69
2022/02/24 00:05:23;;;;;;;;;25.00;21.00;;;;;9.42;40.94;99623.63;6245747;27;99515;-71
2022/02/24 00:08:26;;;;;;;;;21.25;18.25;;;;;9.42;40.99;99620.91;6263765;27;97548;-71
2022/02/24 00:11:29;;;;;;;;;21.00;20.00;;;;;9.39;41.03;99618.59;6245521;27;97517;-69
2022/02/24 00:14:33;;;;;;;;;24.00;21.00;;;;;9.40;41.08;99610.34;6245143;27;96798;-71
2022/02/24 00:17:38;;;;;;;;;26.00;23.00;;;;;9.36;40.89;99606.38;6263711;27;97491;-71
2022/02/24 00:20:42;;;;;;;;;24.60;20.60;;;;;9.37;41.18;99605.38;6263639;27;97478;-69
2022/02/24 00:23:45;;;;;;;;;21.40;20.00;;;;;9.33;41.09;99611.34;6261396;27;96499;-70
2022/02/24 00:26:48;;;;;;;;;23.80;21.80;;;;;9.35;41.20;99614.66;6245201;27;97125;-70
2022/02/24 00:29:52;;;;;;;;;26.40;21.00;;;;;9.31;41.13;99614.22;6244588;27;96679;-71
2022/02/24 00:32:57;;;;;;;;;26.60;21.00;;;;;9.23;41.45;99611.69;6227754;27;99545;-68
2022/02/24 00:36:00;;;;;;;;;23.00;20.00;;;;;9.21;41.35;99608.34;6244573;27;97333;-69
2022/02/24 00:39:03;;;;;;;;;27.60;24.00;;;;;9.13;41.68;99603.94;6245004;27;97485;-72
2022/02/24 00:42:08;;;;;;;;;27.40;20.80;;;;;9.08;41.81;99598.31;6263020;27;97559;-68
2022/02/24 00:45:11;;;;;;;;;21.60;18.40;;;;;9.05;41.79;99593.31;6225331;27;97251;-69
2022/02/24 00:48:16;;;;;;;;;20.60;19.00;;;;;9.04;41.90;99591.66;6226483;27;97945;-72
2022/02/24 00:51:19;;;;;;;;;24.00;20.00;;;;;9.01;41.87;99585.81;6261465;27;97639;-71
2022/02/24 00:54:23;;;;;;;;;23.80;20.20;;;;;8.99;41.96;99579.84;6261102;27;97201;-71
2022/02/24 00:57:26;;;;;;;;;23.00;21.00;;;;;8.95;41.93;99583.91;6261897;27;96695;-69
2022/02/24 01:00:29;;;;;;;;;21.00;19.00;;;;;8.93;42.11;99578.75;6243724;27;98661;-69
2022/02/24 01:03:34;;;;;;;;;21.00;20.00;;;;;8.91;41.99;99575.41;6242300;27;97078;-69
2022/02/24 01:06:38;;;;;;;;;23.00;20.00;;;;;8.88;42.06;99578.50;6262031;27;96580;-71
2022/02/24 01:09:41;;;;;;;;;24.20;22.00;;;;;8.41;42.53;99506.50;6244483;27;97450;-72
2022/02/24 01:12:45;;;;;;;;;22.75;21.00;;;;;8.82;42.23;99575.75;6262468;27;96583;-70
2022/02/24 01:15:48;;;;;;;;;25.20;20.00;;;;;8.78;42.47;99579.84;6262459;27;96846;-69
2022/02/24 01:18:53;;;;;;;;;24.00;20.75;;;;;8.79;42.38;99570.75;6238162;27;97557;-70
2022/02/24 01:21:56;;;;;;;;;23.25;20.00;;;;;8.84;42.24;99585.28;6240953;27;96487;-70
2022/02/24 01:25:00;;;;;;;;;19.40;18.00;;;;;8.85;42.19;99581.56;6262048;27;96576;-69
2022/02/24 01:28:03;;;;;;;;;24.00;20.50;;;;;8.81;42.26;99577.59;6253016;27;96897;-69
2022/02/24 01:31:07;;;;;;;;;21.40;18.00;;;;;8.77;42.35;99579.00;6262363;27;97294;-70
2022/02/24 01:34:12;;;;;;;;;22.00;20.00;;;;;8.57;42.38;99551.09;6262357;27;96547;-70
2022/02/24 01:37:15;;;;;;;;;22.00;19.00;;;;;8.68;42.53;99575.63;6243650;27;98534;-71
2022/02/24 01:40:18;;;;;;;;;21.00;19.00;;;;;8.67;42.59;99571.28;6243154;27;96701;-70
2022/02/24 01:43:21;;;;;;;;;24.50;18.00;;;;;8.68;42.53;99569.41;6242667;27;99724;-70
2022/02/24 01:46:25;;;;;;;;;21.00;20.00;;;;;8.69;42.58;99568.41;6229118;27;100628;-70
2022/02/24 01:49:29;;;;;;;;;18.00;17.00;;;;;8.73;42.41;99566.16;6261931;27;96693;-70
2022/02/24 01:52:33;;;;;;;;;19.40;16.60;;;;;8.71;42.44;99560.97;6243509;27;96681;-70
2022/02/24 01:55:36;;;;;;;;;23.00;18.40;;;;;8.70;42.48;99568.19;6243619;27;96618;-69
2022/02/24 01:58:40;;;;;;;;;20.80;19.00;;;;;8.69;42.30;99563.84;6259983;27;97460;-70
2022/02/24 02:01:43;;;;;;;;;22.40;18.20;;;;;8.67;42.41;99568.59;6261499;27;98333;-69
2022/02/24 02:04:48;;;;;;;;;21.00;18.00;;;;;8.64;42.71;99573.53;6261567;27;96790;-72
2022/02/24 02:07:53;;;;;;;;;22.60;20.60;;;;;8.54;42.66;99567.63;6262235;27;97361;-71
2022/02/24 02:10:56;;;;;;;;;21.00;17.25;;;;;8.65;42.58;99577.84;6243920;27;96550;-71
2022/02/24 02:13:59;;;;;;;;;22.00;20.00;;;;;8.68;42.52;99574.78;6261057;27;97360;-72
2022/02/24 02:17:03;;;;;;;;;20.00;19.00;;;;;8.45;42.66;99537.38;6259869;27;96827;-71
2022/02/24 02:20:08;;;;;;;;;20.00;18.60;;;;;8.70;42.59;99581.63;6260095;27;97034;-71
2022/02/24 02:23:13;;;;;;;;;19.50;18.25;;;;;8.69;42.54;99582.69;6260125;27;97450;-70
2022/02/24 02:26:16;;;;;;;;;18.60;17.60;;;;;8.68;42.57;99575.63;6259326;27;97717;-71
2022/02/24 02:29:20;;;;;;;;;21.00;20.00;;;;;8.65;42.54;99577.84;6259294;27;97393;-70
2022/02/24 02:32:24;;;;;;;;;24.40;21.00;;;;;8.58;42.67;99574.28;6260848;27;97233;-71
2022/02/24 02:35:27;;;;;;;;;20.50;19.25;;;;;8.45;42.52;99574.16;6242682;27;96684;-71
2022/02/24 02:38:32;;;;;;;;;21.00;20.00;;;;;8.32;42.76;99580.22;6242224;27;98328;-72
2022/02/24 02:41:35;;;;;;;;;19.00;18.00;;;;;8.25;42.90;99572.06;6238571;27;98238;-71
2022/02/24 02:44:39;;;;;;;;;19.60;16.60;;;;;8.22;43.04;99579.66;6242220;27;96673;-72
2022/02/24 02:47:42;;;;;;;;;18.00;16.00;;;;;8.01;43.22;99545.56;6246596;27;97047;-70
2022/02/24 02:50:45;;;;;;;;;15.00;13.00;;;;;8.25;43.08;99577.44;6248230;27;97542;-71
2022/02/24 02:53:50;;;;;;;;;16.60;14.00;;;;;8.31;43.14;99573.16;6229340;27;99712;-70
2022/02/24 02:56:53;;;;;;;;;17.00;13.00;;;;;8.37;42.92;99574.25;6247751;27;96414;-70
2022/02/24 02:59:57;;;;;;;;;15.00;13.00;;;;;8.43;42.79;99573.50;6246293;27;98403;-71
2022/02/24 03:03:00;;;;;;;;;13.00;11.67;;;;;8.49;42.71;99575.44;6238895;27;97438;-69
2022/02/24 03:06:03;;;;;;;;;12.40;9.60;;;;;8.49;42.60;99570.91;6265809;27;97079;-71
2022/02/24 03:09:08;;;;;;;;;10.00;8.20;;;;;8.54;42.34;99578.38;6265946;27;96548;-72
2022/02/24 03:12:12;;;;;;;;;13.00;10.00;;;;;8.59;42.49;99562.50;6264666;27;97131;-72
2022/02/24 03:15:15;;;;;;;;;10.00;8.00;;;;;8.62;42.35;99560.25;6247149;27;97488;-70
2022/02/24 03:18:19;;;;;;;;;8.00;8.00;;;;;8.62;42.27;99562.13;6265129;27;96679;-69
2022/02/24 03:21:22;;;;;;;;;9.00;8.00;;;;;8.63;42.65;99558.41;6265309;27;96889;-69
2022/02/24 03:24:29;;;;;;;;;11.40;9.80;;;;;8.63;41.86;99561.09;6264116;27;97555;-71
2022/02/24 03:27:32;;;;;;;;;13.00;9.00;;;;;8.67;42.04;99555.13;6260605;27;96666;-71
2022/02/24 03:30:37;;;;;;;;;8.80;8.00;;;;;8.71;41.96;99558.25;6244908;27;98454;-70
2022/02/24 03:33:41;;;;;;;;;9.00;8.20;;;;;8.68;41.69;99562.19;6246292;27;98556;-69
2022/02/24 03:36:44;;;;;;;;;10.00;8.00;;;;;8.62;42.07;99556.75;6264945;27;96459;-71
2022/02/24 03:39:49;;;;;;;;;9.00;7.50;;;;;8.58;41.92;99542.88;6245752;27;97612;-72
2022/02/24 03:42:53;;;;;;;;;13.00;9.50;;;;;8.68;41.79;99546.06;6260862;27;96476;-69
2022/02/24 03:45:56;;;;;;;;;6.75;6.75;;;;;8.70;41.75;99543.16;6246653;27;96806;-70
2022/02/24 03:49:00;;;;;;;;;8.80;8.00;;;;;8.67;41.67;99538.19;6263635;27;96789;-72
2022/02/24 03:52:04;;;;;;;;;10.00;8.40;;;;;8.74;41.54;99544.47;6262292;27;96631;-70
2022/02/24 03:55:10;;;;;;;;;10.25;8.25;;;;;8.67;41.45;99539.00;6250001;27;96958;-72
2022/02/24 03:58:13;;;;;;;;;8.75;7.00;;;;;8.77;41.43;99541.38;6237953;27;97909;-70
2022/02/24 04:01:18;;;;;;;;;8.40;7.00;;;;;8.74;41.31;99539.09;6240261;27;97111;-72
2022/02/24 04:04:22;;;;;;;;;8.50;8.00;;;;;8.60;41.30;99537.31;6263317;27;97646;-70
2022/02/24 04:07:25;;;;;;;;;9.00;8.00;;;;;8.50;41.79;99542.97;6264400;27;98008;-70
2022/02/24 04:10:30;;;;;;;;;11.00;9.00;;;;;8.38;41.74;99533.78;6246823;27;96508;-70
2022/02/24 04:13:34;;;;;;;;;9.00;8.00;;;;;8.26;41.93;99535.25;6246430;27;96911;-71
2022/02/24 04:16:37;;;;;;;;;10.00;8.00;;;;;8.15;42.35;99533.94;6264055;27;97454;-72
2022/02/24 04:19:43;;;;;;;;;8.00;7.00;;;;;8.05;42.36;99533.41;6227210;27;97923;-70
2022/02/24 04:22:46;;;;;;;;;9.00;8.00;;;;;7.98;42.52;99531.66;6264416;27;97201;-71
2022/02/24 04:25:50;;;;;;;;;8.60;8.00;;;;;7.86;42.73;99522.44;6245953;27;96682;-71
2022/02/24 04:28:59;;;;;;;;;14.00;10.25;;;;;7.68;42.92;99512.94;6264164;27;96452;-72
2022/02/24 04:32:02;;;;;;;;;9.40;9.00;;;;;7.64;43.18;99519.69;6263847;27;96476;-71
2022/02/24 04:35:07;;;;;;;;;10.20;9.00;;;;;7.57;43.23;99518.81;6264091;27;96494;-71
2022/02/24 04:38:10;;;;;;;;;10.60;8.00;;;;;7.54;43.35;99516.47;6261849;27;96933;-69
2022/02/24 04:41:14;;;;;;;;;10.50;9.00;;;;;7.56;43.42;99525.19;6260088;27;96550;-72
2022/02/24 04:44:18;;;;;;;;;9.00;9.00;;;;;7.61;43.29;99524.63;6245423;27;99454;-71
2022/02/24 04:47:21;;;;;;;;;8.25;7.25;;;;;7.66;43.19;99523.03;6229266;27;97390;-71
2022/02/24 04:50:24;;;;;;;;;9.60;8.00;;;;;7.67;43.40;99521.19;6263325;27;97387;-72
2022/02/24 04:53:28;;;;;;;;;9.00;8.40;;;;;7.71;42.91;99506.38;6245009;27;98765;-71
2022/02/24 04:56:32;;;;;;;;;8.00;7.00;;;;;7.72;43.00;99510.72;6244163;27;98122;-70
2022/02/24 04:59:38;;;;;;;;;8.00;7.60;;;;;7.82;42.73;99514.75;6244786;27;97351;-72
2022/02/24 05:02:41;;;;;;;;;11.00;8.00;;;;;7.81;42.80;99507.75;6261428;27;96593;-70
2022/02/24 05:05:45;;;;;;;;;10.00;8.20;;;;;7.73;42.64;99509.69;6227191;27;96881;-70
2022/02/24 05:08:48;;;;;;;;;8.20;8.00;;;;;7.65;42.91;99499.91;6244013;27;98411;-72
2022/02/24 05:11:53;;;;;;;;;9.40;7.60;;;;;7.65;42.98;99501.75;6228096;27;98336;-71
2022/02/24 05:15:04;;;;;;;;;9.00;8.00;;;;;7.66;43.08;99501.56;6263938;27;97484;-71
2022/02/24 05:18:07;;;;;;;;;8.00;7.50;;;;;7.65;42.85;99488.34;6262849;27;96341;-71
2022/02/24 05:21:10;;;;;;;;;9.40;9.00;;;;;7.66;42.97;99487.31;6263654;27;96452;-70
2022/02/24 05:24:13;;;;;;;;;11.80;9.00;;;;;7.59;43.30;99489.91;6262861;27;96617;-70
2022/02/24 05:27:18;;;;;;;;;7.00;7.00;;;;;7.66;43.15;99485.47;6247767;27;96953;-70
2022/02/24 05:30:21;;;;;;;;;8.20;6.00;;;;;7.64;43.10;99481.28;6260690;27;97127;-72
2022/02/24 05:33:25;;;;;;;;;6.75;6.00;;;;;7.66;43.19;99477.41;6273472;27;97298;-73
2022/02/24 05:36:28;;;;;;;;;9.60;9.00;;;;;7.62;43.33;99478.00;6261347;27;96646;-71
2022/02/24 05:39:31;;;;;;;;;8.00;7.00;;;;;7.65;43.14;99475.75;6260604;27;96433;-70
2022/02/24 05:42:36;;;;;;;;;7.00;6.75;;;;;7.50;43.43;99474.94;6262773;27;97464;-70
2022/02/24 05:45:39;;;;;;;;;10.00;9.00;;;;;7.57;43.24;99478.56;6262411;27;96557;-71
2022/02/24 05:48:42;;;;;;;;;7.50;6.00;;;;;7.57;43.26;99473.19;6242908;27;97533;-70
2022/02/24 05:51:47;;;;;;;;;8.00;7.00;;;;;7.84;42.74;99474.31;6260396;27;96750;-72
2022/02/24 05:54:50;;;;;;;;;9.60;8.60;;;;;7.96;42.45;99477.34;6242386;27;96390;-71
2022/02/24 05:57:55;;;;;;;;;11.00;9.00;;;;;8.14;42.24;99475.03;6225155;27;99509;-71
2022/02/24 06:00:58;;;;;;;;;10.40;9.00;;;;;8.24;41.99;99471.00;6260279;27;97497;-72
2022/02/24 06:04:02;;;;;;;;;10.40;8.00;;;;;8.36;41.78;99475.88;6261488;27;97389;-70
2022/02/24 06:07:05;;;;;;;;;9.00;8.00;;;;;8.57;41.77;99484.75;6262155;27;97530;-71
2022/02/24 06:10:10;;;;;;;;;7.00;7.00;;;;;8.66;41.38;99464.78;6260367;27;97196;-70
2022/02/24 06:13:15;;;;;;;;;11.40;9.00;;;;;9.08;40.93;99484.50;6243653;27;97475;-70
2022/02/24 06:16:18;;;;;;;;;10.00;9.50;;;;;9.31;40.73;99478.84;6242798;27;96901;-71
2022/02/24 06:19:22;;;;;;;;;12.00;9.00;;;;;9.49;40.25;99476.44;6227035;27;97146;-70
2022/02/24 06:22:25;;;;;;;;;8.80;7.00;;;;;9.64;39.78;99465.53;6266620;27;97057;-71
2022/02/24 06:25:30;;;;;;;;;8.50;7.25;;;;;9.89;39.18;99462.09;6266384;27;96307;-70
2022/02/24 06:28:35;;;;;;;;;8.00;7.60;;;;;10.22;38.77;99456.78;6266436;27;96635;-71
2022/02/24 06:31:39;;;;;;;;;10.40;7.80;;;;;10.64;38.08;99452.88;6262131;27;96682;-69
2022/02/24 06:34:43;;;;;;;;;10.00;8.80;;;;;11.10;37.33;99454.66;6239587;27;98737;-69
2022/02/24 06:37:48;;;;;;;;;11.00;10.00;;;;;11.70;35.91;99454.25;6264324;27;97607;-69
2022/02/24 06:40:52;;;;;;;;;5.75;5.75;;;;;12.44;34.84;99450.09;6242139;27;98610;-71
2022/02/24 06:43:57;;;;;;;;;8.50;8.00;;;;;13.32;33.43;99454.25;6249021;27;97164;-70
2022/02/24 06:47:01;;;;;;;;;11.00;8.00;;;;;14.33;31.73;99453.53;6258623;27;98910;-71
2022/02/24 06:50:05;;;;;;;;;11.00;8.25;;;;;16.06;29.25;99450.94;6265795;27;96669;-71
2022/02/24 06:53:09;;;;;;;;;17.50;15.75;;;;;18.35;25.21;99459.47;6260207;27;98559;-70
2022/02/24 06:56:13;;;;;;;;;18.40;18.00;;;;;20.65;22.80;99459.34;6266553;27;97345;-70
2022/02/24 06:59:19;;;;;;;;;11.00;10.00;;;;;22.83;21.33;99458.53;6277284;27;97415;-71
2022/02/24 07:02:22;;;;;;;;;8.25;6.50;;;;;24.11;18.57;99460.44;6247678;27;97396;-67
2022/02/24 07:05:27;;;;;;;;;6.00;6.00;;;;;25.54;18.21;99445.97;6246664;27;98424;-66
2022/02/24 07:08:30;;;;;;;;;6.25;6.00;;;;;26.86;16.74;99457.75;6268575;27;97426;-67
2022/02/24 07:11:33;;;;;;;;;6.00;5.60;;;;;28.02;15.70;99454.53;6269320;27;96680;-70
2022/02/24 07:14:38;;;;;;;;;5.40;5.00;;;;;28.99;14.78;99441.22;6247835;27;97789;-71
2022/02/24 07:17:46;;;;;;;;;6.00;5.00;;;;;29.58;14.07;99435.81;6267100;27;96370;-74
2022/02/24 07:20:49;;;;;;;;;6.00;5.00;;;;;30.38;13.15;99436.66;6266941;27;97750;-69
2022/02/24 07:23:52;;;;;;;;;6.00;5.60;;;;;30.72;13.26;99430.84;6264672;27;97580;-69
2022/02/24 07:26:56;;;;;;;;;6.00;5.60;;;;;29.86;12.80;99425.06;6272831;27;97350;-70
2022/02/24 07:30:01;;;;;;;;;6.20;6.00;;;;;29.82;12.76;99429.63;6264220;27;98817;-70
2022/02/24 07:33:06;;;;;;;;;6.20;5.20;;;;;30.33;13.03;99417.38;6246988;27;96864;-73
2022/02/24 07:36:10;;;;;;;;;6.25;6.00;;;;;30.47;13.41;99409.59;6265571;27;96508;-69
2022/02/24 07:39:15;;;;;;;;;9.20;6.60;;;;;30.87;12.88;99415.47;6265225;27;96392;-69
2022/02/24 07:42:19;;;;;;;;;6.00;5.00;;;;;31.29;12.44;99416.16;6248427;27;96624;-68
2022/02/24 07:45:24;;;;;;;;;7.00;7.00;;;;;31.57;11.86;99411.56;6263904;27;98970;-70
2022/02/24 07:48:28;;;;;;;;;8.00;6.00;;;;;31.75;11.71;99410.19;6263498;27;97140;-69
2022/02/24 07:51:31;;;;;;;;;8.00;6.00;;;;;31.70;11.80;99404.03;6246593;27;97501;-71
2022/02/24 07:54:35;;;;;;;;;6.00;5.50;;;;;32.27;11.38;99392.66;6264016;27;96516;-72
2022/02/24 07:57:39;;;;;;;;;7.00;6.40;;;;;31.94;10.88;99401.22;6264679;27;97210;-69
2022/02/24 08:00:45;;;;;;;;;6.00;5.50;;;;;31.75;11.37;99398.22;6245516;27;98469;-71
2022/02/24 08:03:48;;;;;;;;;7.00;6.00;;;;;32.23;11.46;99391.75;6265600;27;96470;-71
2022/02/24 08:06:54;;;;;;;;;7.00;6.00;;;;;32.54;10.85;99388.28;6265246;27;97331;-70
2022/02/24 08:09:57;;;;;;;;;7.40;6.40;;;;;33.23;10.85;99376.66;6265618;27;97057;-71
2022/02/24 08:13:03;;;;;;;;;6.00;5.00;;;;;33.37;10.44;99377.03;6264964;27;96379;-69
2022/02/24 08:16:07;;;;;;;;;8.00;6.00;;;;;32.50;10.73;99377.00;6265525;27;96442;-71
2022/02/24 08:19:11;;;;;;;;;7.00;5.60;;;;;32.37;11.06;99364.28;6230799;28;99831;-70
2022/02/24 08:22:20;;;;;;;;;5.00;5.00;;;;;30.17;11.75;99361.56;6222659;28;96850;-68
2022/02/24 08:25:24;;;;;;;;;8.00;7.00;;;;;31.01;11.68;99337.16;6250105;27;97945;-71
2022/02/24 08:28:27;;;;;;;;;8.00;6.40;;;;;31.85;11.13;99357.88;6257299;27;97998;-71
2022/02/24 08:31:32;;;;;;;;;5.20;4.60;;;;;32.64;11.12;99343.94;6246765;27;98411;-72
2022/02/24 08:34:35;;;;;;;;;4.33;4.00;;;;;32.98;10.40;99344.44;6262778;27;97238;-68
2022/02/24 08:37:40;;;;;;;;;5.25;5.25;;;;;33.18;10.28;99340.63;6235450;27;97663;-67
2022/02/24 08:40:44;;;;;;;;;7.75;6.25;;;;;33.50;10.47;99336.59;6269361;27;96801;-69
2022/02/24 08:43:47;;;;;;;;;6.80;6.00;;;;;32.92;10.35;99317.94;6265103;27;97532;-72
2022/02/24 08:46:52;;;;;;;;;6.40;6.00;;;;;33.03;10.26;99308.69;6261389;27;99603;-69
2022/02/24 08:49:55;;;;;;;;;6.00;5.40;;;;;33.39;10.16;99318.75;6264416;27;97553;-68
2022/02/24 08:53:18;;;;;;;;;7.00;6.00;;;;;33.80;9.87;99310.94;6243196;27;98353;-69
2022/02/24 08:56:22;;;;;;;;;7.00;6.00;;;;;33.47;9.82;99314.97;6245608;27;99474;-69
2022/02/24 08:59:25;;;;;;;;;7.00;6.00;;;;;32.70;10.11;99310.16;6245943;27;96449;-68
2022/02/24 09:02:29;;;;;;;;;5.80;5.20;;;;;33.23;10.19;99301.22;6266184;27;97384;-69
2022/02/24 09:05:33;;;;;;;;;7.00;6.00;;;;;33.77;10.25;99289.31;6232000;27;98430;-70
2022/02/24 09:08:36;;;;;;;;;6.80;6.00;;;;;33.56;9.68;99286.00;6252184;27;96737;-74
2022/02/24 09:11:39;;;;;;;;;6.60;5.00;;;;;33.56;9.62;99278.44;6263725;27;97590;-70
2022/02/24 09:14:42;;;;;;;;;5.00;4.50;;;;;32.91;10.35;99274.41;6246102;27;97277;-74
2022/02/24 09:17:49;;;;;;;;;5.00;5.00;;;;;32.15;10.81;99265.22;6261472;27;97830;-73
2022/02/24 09:20:53;;;;;;;;;7.00;7.00;;;;;32.53;10.46;99252.66;6252756;27;97259;-71
2022/02/24 09:23:56;;;;;;;;;7.60;6.40;;;;;32.54;9.84;99255.13;6263230;27;97800;-73
2022/02/24 09:26:59;;;;;;;;;6.25;6.25;;;;;32.45;9.70;99250.88;6202868;28;98349;-73
2022/02/24 09:30:04;;;;;;;;;7.00;6.00;;;;;32.54;10.75;99243.94;6239894;27;97503;-71
2022/02/24 09:33:10;;;;;;;;;6.00;5.00;;;;;32.83;9.88;99250.28;6244523;27;96567;-74
2022/02/24 09:36:15;;;;;;;;;6.00;4.00;;;;;32.33;9.19;99207.09;6263260;27;96626;-71
2022/02/24 09:39:18;;;;;;;;;5.40;4.60;;;;;32.60;9.84;99238.88;6263096;27;96509;-73
2022/02/24 09:42:22;;;;;;;;;6.00;5.60;;;;;32.59;9.56;99224.13;6264147;27;96997;-70
2022/02/24 09:45:25;;;;;;;;;6.00;5.00;;;;;32.72;9.43;99221.28;6266826;27;96672;-73
2022/02/24 09:48:36;;;;;;;;;5.00;5.00;;;;;32.51;9.63;99215.91;6240331;27;99427;-72
2022/02/24 09:51:43;;;;;;;;;5.00;4.00;;;;;32.04;9.48;99207.47;6266334;27;97483;-71
2022/02/24 09:54:47;;;;;;;;;4.00;4.00;;;;;32.25;10.00;99205.28;6262264;27;96703;-69
2022/02/24 09:57:51;;;;;;;;;5.40;5.00;;;;;31.10;9.88;99198.66;6266170;27;96663;-70
2022/02/24 10:00:59;;;;;;;;;4.00;4.00;;;;;31.50;9.81;99184.75;6254653;27;97220;-71
2022/02/24 10:04:05;;;;;;;;;5.00;5.00;;;;;31.60;9.72;99178.72;6258181;27;97358;-74
2022/02/24 10:07:25;;;;;;;;;4.00;4.00;;;;;31.36;10.13;99171.22;6280752;27;96996;-70
2022/02/24 10:10:32;;;;;;;;;6.00;5.00;;;;;31.63;10.02;99164.06;6241211;27;96847;-68
2022/02/24 10:13:36;;;;;;;;;4.00;4.00;;;;;31.85;9.79;99157.94;6264273;27;97029;-71
2022/02/24 10:16:54;;;;;;;;;5.00;4.75;;;;;31.37;9.01;99144.97;6285181;27;96476;-71
2022/02/24 10:19:59;;;;;;;;;4.40;4.00;;;;;31.48;9.27;99137.72;6263430;27;96935;-69
2022/02/24 10:23:02;;;;;;;;;5.00;5.00;;;;;31.29;10.02;99127.22;6268391;27;97466;-68
2022/02/24 10:26:08;;;;;;;;;5.00;4.75;;;;;29.87;9.97;99126.44;6283331;27;96686;-71
2022/02/24 10:29:11;;;;;;;;;4.00;4.00;;;;;30.52;9.59;99126.41;6285043;27;97754;-71
2022/02/24 10:32:29;;;;;;;;;4.20;4.00;;;;;30.49;9.22;99099.28;6231347;27;96611;-71
2022/02/24 10:35:37;;;;;;;;;3.00;2.40;;;;;30.33;8.92;99100.28;6261303;27;97332;-69
2022/02/24 10:38:40;;;;;;;;;4.00;3.20;;;;;30.44;9.27;99091.13;6263903;27;97043;-70
2022/02/24 10:41:46;;;;;;;;;4.00;3.60;;;;;29.68;9.54;99082.53;6286036;27;96626;-69
2022/02/24 10:45:06;;;;;;;;;4.80;3.00;;;;;28.99;9.88;99079.53;6275782;27;97519;-67
2022/02/24 10:48:10;;;;;;;;;4.00;4.00;;;;;29.61;10.38;99069.22;6285931;27;97137;-67
2022/02/24 10:51:21;;;;;;;;;5.00;4.00;;;;;28.37;10.57;99061.63;6286506;27;96315;-69
2022/02/24 10:54:28;;;;;;;;;4.00;3.00;;;;;29.02;9.82;99056.66;6251694;27;96898;-70
2022/02/24 10:57:32;;;;;;;;;4.00;4.00;;;;;29.09;10.13;99051.34;6264493;27;96571;-69
2022/02/24 11:00:35;;;;;;;;;4.50;4.00;;;;;29.42;9.83;99043.88;6272180;27;97422;-70
2022/02/24 11:03:42;;;;;;;;;3.60;3.00;;;;;29.48;9.97;99044.47;6277755;27;96548;-71
2022/02/24 11:06:49;;;;;;;;;4.00;3.25;;;;;29.82;10.01;99038.53;6227760;27;96468;-67
2022/02/24 11:09:58;;;;;;;;;5.00;4.00;;;;;29.60;9.73;99034.22;6248908;27;97596;-70
2022/02/24 11:13:01;;;;;;;;;3.00;3.00;;;;;27.94;10.48;99024.97;6267918;27;97453;-70
2022/02/24 11:16:05;;;;;;;;;4.00;3.00;;;;;28.95;10.27;99018.34;6241325;27;97131;-70
2022/02/24 11:19:09;;;;;;;;;5.00;4.00;;;;;29.15;9.71;99014.72;6261178;27;96798;-73
2022/02/24 11:22:14;;;;;;;;;3.00;2.80;;;;;28.71;10.01;99023.72;6265874;27;97447;-71
2022/02/24 11:25:22;;;;;;;;;3.00;3.00;;;;;28.93;9.74;99003.97;6264408;27;97469;-67
2022/02/24 11:28:29;;;;;;;;;4.00;4.00;;;;;29.63;9.66;98991.03;6266160;27;96833;-68
2022/02/24 11:31:51;;;;;;;;;3.00;3.00;;;;;28.92;9.25;98988.50;6247872;27;96726;-70
2022/02/24 11:35:00;;;;;;;;;3.00;2.00;;;;;28.32;9.29;98991.69;6265815;27;96897;-69
2022/02/24 11:38:12;;;;;;;;;3.00;2.00;;;;;26.75;10.09;98991.59;6247702;27;97272;-71
2022/02/24 11:41:17;;;;;;;;;3.00;3.00;;;;;26.85;10.39;98976.63;6266174;27;98163;-71
2022/02/24 11:44:36;;;;;;;;;3.25;2.50;;;;;25.35;10.63;98970.53;6262191;27;98011;-70
2022/02/24 11:47:57;;;;;;;;;3.00;2.00;;;;;26.55;10.22;98973.69;6264983;27;96729;-67
2022/02/24 11:51:04;;;;;;;;;5.00;3.00;;;;;25.55;10.76;98953.44;6263718;27;99487;-71
2022/02/24 11:54:37;;;;;;;;;2.60;2.60;;;;;25.58;11.21;98941.75;6247047;27;97782;-69
2022/02/24 11:57:40;;;;;;;;;5.00;4.00;;;;;26.14;10.79;98940.16;6243200;27;96830;-68
2022/02/24 12:01:09;;;;;;;;;4.00;4.00;;;;;26.56;10.78;98931.09;6255428;27;97457;-67
2022/02/24 12:04:24;;;;;;;;;3.00;3.00;;;;;26.93;10.71;98920.50;6258149;27;97151;-70
2022/02/24 12:07:27;;;;;;;;;5.00;3.00;;;;;26.97;10.70;98924.25;6252823;27;97188;-69
2022/02/24 12:10:41;;;;;;;;;4.00;3.80;;;;;26.82;10.09;98910.91;6265078;27;97594;-70
2022/02/24 12:13:45;;;;;;;;;2.00;2.00;;;;;27.54;9.74;98908.97;6259492;27;96650;-70
2022/02/24 12:17:05;;;;;;;;;2.40;2.40;;;;;27.28;9.58;98902.66;6263080;27;98383;-70
2022/02/24 12:20:22;;;;;;;;;3.00;2.00;;;;;27.05;10.07;98901.28;6264456;27;96809;-71
2022/02/24 12:23:27;;;;;;;;;4.00;4.00;;;;;27.04;9.93;98897.69;6245593;27;98060;-67
2022/02/24 12:26:40;;;;;;;;;5.00;4.00;;;;;27.10;10.05;98890.03;6264563;27;96607;-68
2022/02/24 12:29:43;;;;;;;;;3.60;3.00;;;;;27.19;10.46;98881.69;6244279;27;97778;-66
2022/02/24 12:32:51;;;;;;;;;4.00;3.00;;;;;27.14;9.76;98853.06;6259682;27;96655;-67
2022/02/24 12:35:55;;;;;;;;;3.00;3.00;;;;;26.64;10.24;98874.16;6263865;27;97403;-70
2022/02/24 12:38:59;;;;;;;;;2.75;2.25;;;;;25.51;11.03;98880.63;6263706;27;96674;-67
2022/02/24 12:42:05;;;;;;;;;5.00;3.00;;;;;26.04;11.07;98876.91;6263168;27;96772;-69
2022/02/24 12:45:08;;;;;;;;;3.75;3.00;;;;;26.35;10.84;98861.00;6264317;27;96581;-67
2022/02/24 12:48:12;;;;;;;;;3.00;3.00;;;;;26.48;10.71;98856.44;6264295;27;97376;-67
2022/02/24 12:51:23;;;;;;;;;3.00;3.00;;;;;26.40;10.51;98846.19;6246538;27;96424;-67
2022/02/24 12:54:29;;;;;;;;;4.00;3.25;;;;;26.51;10.97;98844.72;6228793;27;96817;-67
2022/02/24 12:57:34;;;;;;;;;3.00;3.00;;;;;26.54;10.78;98849.59;6243463;27;97717;-68
2022/02/24 13:00:39;;;;;;;;;3.00;2.00;;;;;26.45;10.68;98846.03;6254494;27;97015;-69
2022/02/24 13:03:43;;;;;;;;;3.60;3.00;;;;;25.62;10.74;98812.16;6235207;27;98382;-69
2022/02/24 13:06:46;;;;;;;;;3.00;3.00;;;;;25.66;10.79;98824.19;6253156;27;97658;-68
2022/02/24 13:09:57;;;;;;;;;1.75;1.75;;;;;25.65;10.88;98817.88;6267201;27;97508;-67
2022/02/24 13:13:02;;;;;;;;;2.00;2.00;;;;;25.26;11.42;98809.63;6262899;27;97797;-65
2022/02/24 13:16:07;;;;;;;;;2.60;2.00;;;;;24.78;10.99;98812.28;6247837;27;97835;-68
2022/02/24 13:19:17;;;;;;;;;2.40;2.00;;;;;24.42;10.89;98798.63;6259915;27;97443;-71
2022/02/24 13:22:21;;;;;;;;;3.00;2.00;;;;;24.20;12.02;98801.38;6249537;27;98940;-66
2022/02/24 13:25:29;;;;;;;;;2.60;2.00;;;;;24.02;12.27;98794.91;6251806;27;99638;-67
2022/02/24 13:28:35;;;;;;;;;2.00;2.00;;;;;24.01;11.92;98777.56;6252205;27;97543;-68
2022/02/24 13:31:38;;;;;;;;;2.00;2.00;;;;;23.85;12.12;98779.03;6261339;27;96643;-67
2022/02/24 13:34:43;;;;;;;;;2.00;2.00;;;;;23.10;12.78;98781.50;6261382;27;97400;-67
2022/02/24 13:37:51;;;;;;;;;2.50;2.00;;;;;23.00;12.84;98767.94;6261075;27;97020;-67
2022/02/24 13:41:00;;;;;;;;;3.25;2.75;;;;;22.56;13.59;98765.75;6260723;27;97488;-66
2022/02/24 13:44:05;;;;;;;;;2.33;2.33;;;;;22.04;13.68;98754.00;6261293;27;97590;-69
2022/02/24 13:47:11;;;;;;;;;3.00;2.60;;;;;21.66;14.21;98755.94;6263529;27;98175;-69
2022/02/24 13:50:14;;;;;;;;;3.00;3.00;;;;;21.58;13.83;98743.72;6260794;27;97003;-69
2022/02/24 13:53:23;;;;;;;;;3.00;3.00;;;;;21.12;14.20;98732.53;6260925;27;96506;-70
2022/02/24 13:56:27;;;;;;;;;2.00;2.00;;;;;20.65;15.00;98736.13;6262454;27;96941;-69
2022/02/24 13:59:33;;;;;;;;;2.00;2.00;;;;;20.10;15.54;98740.19;6273851;27;96987;-70
2022/02/24 14:02:37;;;;;;;;;3.80;3.80;;;;;19.78;15.58;98720.75;6217435;28;96643;-68
2022/02/24 14:05:40;;;;;;;;;4.00;4.00;;;;;19.11;16.42;98724.16;6235742;28;96552;-68
2022/02/24 14:08:48;;;;;;;;;3.00;3.00;;;;;18.89;17.34;98722.63;6257213;27;96583;-67
2022/02/24 14:11:53;;;;;;;;;3.40;2.40;;;;;19.21;17.04;98713.16;6261019;27;97424;-67
2022/02/24 14:14:58;;;;;;;;;3.00;3.00;;;;;18.91;17.41;98706.75;6265221;27;98158;-71
2022/02/24 14:18:01;;;;;;;;;4.00;4.00;;;;;19.27;17.24;98696.47;6246160;27;97401;-72
2022/02/24 14:21:05;;;;;;;;;4.75;3.75;;;;;19.03;17.28;98696.31;6261566;27;98065;-71
2022/02/24 14:24:09;;;;;;;;;3.00;3.00;;;;;19.14;16.79;98686.16;6243530;27;98506;-68
2022/02/24 14:27:13;;;;;;;;;3.00;3.00;;;;;19.39;16.21;98677.00;6246574;27;97550;-69
2022/02/24 14:30:18;;;;;;;;;3.00;3.00;;;;;19.68;16.13;98677.91;6231457;27;97527;-70
2022/02/24 14:33:22;;;;;;;;;3.00;2.00;;;;;19.74;15.59;98679.47;6238559;27;97815;-69